Ardenhurst, Minnesota
Current Conditions -  °F | °C
As of 4:33 AM on Wednesday 22 Oct 2014 (Local Time) from KFOZ Reporting Station
Clear Clear  
Wind Chill: 39°   Ceiling: Unl
Heat Index: 43°   Visibility: 10mi
Dew Point: 36°   Wind: 7mph
Humidity: 76%   Direction: 150°SSE
Pressure: 30.09"   Gusts: NA
Location:  47.8312°N, 94.1459°W
Report Text: KFOZ 220933Z AUTO 15006KT 10SM CLR 06/02 A3009 RMK AO2
Loading
Personal Weather Stations






























Interactive Weather Map
Tropical Storm Tracking
New forecast layout! Learn more

10-Day Weather Forecast

Advertisements
Track Severe Weather on mobile